Santorini, Greece
Current Conditions -  °F | °C
As of 1:20 PM on Tuesday 21 Oct 2014 (Local Time) from LGSR Reporting Station
Few Clouds Few Clouds  
Wind Chill: 72°   Ceiling: Unl
Heat Index: 72°   Visibility: 6mi
Dew Point: 52°   Wind: 5mph
Humidity: 50%   Direction: NA
Pressure: 29.97"   Gusts: NA
Location:  36.4°N, 25.46°E
Report Text: LGSR 211020Z VRB04KT 9999 FEW025 22/11 Q1015
Loading
Personal Weather Stations






























Interactive Weather Map
Tropical Storm Tracking
New forecast layout! Learn more

10-Day Weather Forecast

Advertisements
Track Severe Weather on mobile